createdAt,value
2023-03-18T00:01:01.476Z,2.78
2023-03-18T00:03:30.706Z,3.00
2023-03-18T00:06:07.766Z,2.80
2023-03-18T00:08:37.645Z,2.90
2023-03-18T00:11:06.627Z,3.58
2023-03-18T00:13:35.476Z,2.78
2023-03-18T00:16:07.447Z,3.05
2023-03-18T00:18:35.702Z,3.17
2023-03-18T00:21:04.961Z,2.67
2023-03-18T00:23:34.508Z,2.55
2023-03-18T00:26:03.960Z,2.70
2023-03-18T00:28:33.134Z,2.63
2023-03-18T00:31:08.682Z,2.70
2023-03-18T00:33:38.476Z,2.80
2023-03-18T00:36:10.160Z,2.63
2023-03-18T00:38:39.226Z,2.70
2023-03-18T00:41:12.569Z,2.38
2023-03-18T00:43:47.392Z,2.60
2023-03-18T00:46:19.863Z,2.90
2023-03-18T00:48:48.562Z,2.83
2023-03-18T00:51:18.221Z,3.17
2023-03-18T00:53:48.883Z,2.60
2023-03-18T00:56:19.415Z,2.95
2023-03-18T00:58:48.096Z,2.83
2023-03-18T01:01:18.231Z,3.40
2023-03-18T01:03:48.211Z,3.27
2023-03-18T01:06:19.553Z,2.90
2023-03-18T01:08:47.698Z,3.47
2023-03-18T01:11:16.695Z,2.85
2023-03-18T01:13:46.406Z,3.30
2023-03-18T01:16:15.338Z,3.17
2023-03-18T01:18:45.587Z,3.00
2023-03-18T01:21:15.100Z,2.63
2023-03-18T01:23:43.669Z,3.42
2023-03-18T01:26:13.079Z,3.10
2023-03-18T01:28:41.740Z,3.35
2023-03-18T01:31:10.516Z,3.25
2023-03-18T01:33:38.621Z,3.20
2023-03-18T01:36:09.999Z,3.28
2023-03-18T01:38:38.537Z,3.05
2023-03-18T01:41:07.205Z,3.55
2023-03-18T01:43:39.262Z,3.20
2023-03-18T01:46:35.503Z,3.40
2023-03-18T01:49:07.598Z,3.55
2023-03-18T01:51:37.963Z,3.58
2023-03-18T01:54:09.526Z,3.33
2023-03-18T01:56:40.091Z,3.30
2023-03-18T01:59:11.088Z,2.80
2023-03-18T02:01:43.874Z,3.95
2023-03-18T02:04:13.189Z,3.65
2023-03-18T02:06:43.168Z,3.80
2023-03-18T02:09:11.712Z,3.63
2023-03-18T02:11:43.813Z,3.75
2023-03-18T02:14:16.495Z,3.70
2023-03-18T02:16:48.886Z,3.57
2023-03-18T02:19:41.642Z,3.33
2023-03-18T02:22:19.572Z,4.00
2023-03-18T02:24:57.325Z,3.30
2023-03-18T02:27:29.486Z,3.00
2023-03-18T02:30:00.530Z,3.57
2023-03-18T02:32:30.678Z,3.30
2023-03-18T02:35:02.003Z,4.03
2023-03-18T02:37:30.576Z,3.90
2023-03-18T02:40:15.421Z,3.80
2023-03-18T02:42:45.993Z,3.63
2023-03-18T02:45:35.850Z,3.70
2023-03-18T02:48:08.686Z,3.47
2023-03-18T02:50:36.857Z,3.47
2023-03-18T02:53:06.034Z,3.60
2023-03-18T02:55:34.100Z,3.58
2023-03-18T02:58:04.024Z,4.10
2023-03-18T03:00:32.302Z,3.30
2023-03-18T03:03:02.184Z,3.70
2023-03-18T03:05:30.584Z,3.83
2023-03-18T03:07:58.722Z,3.92
2023-03-18T03:10:27.396Z,3.42
2023-03-18T03:12:56.679Z,3.75
2023-03-18T03:15:27.117Z,3.60
2023-03-18T03:17:55.283Z,3.90
2023-03-18T03:20:24.178Z,3.50
2023-03-18T03:22:53.292Z,3.43
2023-03-18T03:25:22.899Z,3.65
2023-03-18T03:27:51.104Z,3.50
2023-03-18T03:30:19.872Z,3.60
2023-03-18T03:32:49.378Z,3.40
2023-03-18T03:35:20.588Z,3.13
2023-03-18T03:37:49.109Z,3.05
2023-03-18T03:40:20.537Z,3.60
2023-03-18T03:42:49.494Z,3.72
2023-03-18T03:45:19.716Z,4.20
2023-03-18T03:47:49.708Z,3.70
2023-03-18T03:50:20.430Z,4.50
2023-03-18T03:52:49.295Z,4.43
2023-03-18T03:55:20.968Z,3.75
2023-03-18T03:57:49.386Z,4.10
2023-03-18T04:00:21.274Z,4.40
2023-03-18T04:02:52.743Z,4.20
2023-03-18T04:05:23.098Z,4.30
2023-03-18T04:07:51.986Z,4.18
2023-03-18T04:10:23.074Z,3.73
2023-03-18T04:12:52.066Z,3.67
2023-03-18T04:15:22.353Z,3.97
2023-03-18T04:17:52.418Z,4.10
2023-03-18T04:20:20.977Z,3.85
2023-03-18T04:22:49.792Z,4.10
2023-03-18T04:25:18.438Z,3.90
2023-03-18T04:27:46.789Z,3.87
2023-03-18T04:30:15.958Z,3.43
2023-03-18T04:32:44.143Z,3.50
2023-03-18T04:35:14.736Z,3.30
2023-03-18T04:37:43.153Z,3.90
2023-03-18T04:40:13.591Z,3.93
2023-03-18T04:42:41.781Z,3.67
2023-03-18T04:45:11.152Z,4.40
2023-03-18T04:47:39.316Z,3.70
2023-03-18T04:50:11.476Z,4.00
2023-03-18T04:52:41.989Z,3.60
2023-03-18T04:55:11.378Z,3.63
2023-03-18T04:57:40.335Z,3.87
2023-03-18T05:00:11.603Z,3.73
2023-03-18T05:02:41.148Z,3.60
2023-03-18T05:05:11.102Z,3.67
2023-03-18T05:07:40.619Z,3.90
2023-03-18T05:10:10.772Z,4.07
2023-03-18T05:12:39.178Z,4.40
2023-03-18T05:15:10.929Z,5.00
2023-03-18T05:17:40.923Z,4.88
2023-03-18T05:20:10.946Z,4.90
2023-03-18T05:22:40.621Z,4.53
2023-03-18T05:25:11.995Z,4.57
2023-03-18T05:27:40.635Z,4.57
2023-03-18T05:30:11.035Z,4.80
2023-03-18T05:32:39.222Z,5.10
2023-03-18T05:35:08.462Z,4.40
2023-03-18T05:37:36.843Z,4.77
2023-03-18T05:40:10.415Z,4.80
2023-03-18T05:42:54.921Z,4.70
2023-03-18T05:45:23.879Z,4.43
2023-03-18T05:47:52.791Z,5.03
2023-03-18T05:50:30.072Z,5.17
2023-03-18T05:52:58.931Z,4.60
2023-03-18T05:55:29.546Z,4.90
2023-03-18T05:57:59.520Z,5.17
2023-03-18T06:00:30.555Z,5.13
2023-03-18T06:02:59.693Z,5.93
2023-03-18T06:05:28.725Z,5.40
2023-03-18T06:07:57.323Z,5.03
2023-03-18T06:10:26.266Z,4.90
2023-03-18T06:12:56.958Z,4.83
2023-03-18T06:15:25.760Z,4.57
2023-03-18T06:17:54.420Z,5.20
2023-03-18T06:20:23.447Z,4.57
2023-03-18T06:22:52.229Z,4.40
2023-03-18T06:25:22.319Z,4.77
2023-03-18T06:27:51.531Z,4.83
2023-03-18T06:30:22.038Z,4.97
2023-03-18T06:32:50.195Z,5.50
2023-03-18T06:35:19.429Z,5.17
2023-03-18T06:37:48.575Z,5.53
2023-03-18T06:40:17.923Z,5.57
2023-03-18T06:42:46.710Z,5.30
2023-03-18T06:45:15.808Z,5.37
2023-03-18T06:47:47.073Z,5.23
2023-03-18T06:50:15.857Z,5.00
2023-03-18T06:52:44.502Z,5.22
2023-03-18T06:55:13.129Z,5.67
2023-03-18T06:57:42.040Z,4.80
2023-03-18T07:00:11.947Z,5.20
2023-03-18T07:02:41.262Z,5.27
2023-03-18T07:05:12.802Z,5.10
2023-03-18T07:07:42.560Z,6.57
2023-03-18T07:10:17.196Z,6.10
2023-03-18T07:12:45.793Z,5.53
2023-03-18T07:15:14.156Z,5.77
2023-03-18T07:17:42.750Z,5.93
2023-03-18T07:20:13.626Z,5.63
2023-03-18T07:22:42.880Z,5.43
2023-03-18T07:25:11.561Z,5.63
2023-03-18T07:27:40.499Z,5.45
2023-03-18T07:30:10.615Z,5.37
2023-03-18T07:32:39.967Z,4.60
2023-03-18T07:35:11.375Z,5.60
2023-03-18T07:37:41.677Z,5.45
2023-03-18T07:40:12.244Z,5.23
2023-03-18T07:42:40.842Z,5.93
2023-03-18T07:45:10.514Z,6.40
2023-03-18T07:47:39.302Z,7.18
2023-03-18T07:50:08.920Z,7.18
2023-03-18T07:52:37.965Z,8.60
2023-03-18T07:55:09.257Z,7.72
2023-03-18T07:57:38.398Z,6.20
2023-03-18T08:00:08.216Z,5.93
2023-03-18T08:02:36.881Z,6.93
2023-03-18T08:05:06.931Z,7.03
2023-03-18T08:07:36.134Z,6.47
2023-03-18T08:10:04.714Z,6.53
2023-03-18T08:12:51.015Z,6.13
2023-03-18T08:15:21.090Z,5.77
2023-03-18T08:17:49.200Z,5.63
2023-03-18T08:20:18.080Z,5.40
2023-03-18T08:22:46.910Z,6.57
2023-03-18T08:25:15.500Z,5.37
2023-03-18T08:27:44.995Z,5.27
2023-03-18T08:30:15.647Z,5.65
2023-03-18T08:32:44.327Z,5.35
2023-03-18T08:35:13.865Z,4.50
2023-03-18T08:37:42.625Z,5.38
2023-03-18T08:40:12.619Z,6.18
2023-03-18T08:42:41.288Z,6.18
2023-03-18T08:45:12.846Z,5.90
2023-03-18T08:47:41.441Z,4.82
2023-03-18T08:50:11.015Z,4.80
2023-03-18T08:52:40.269Z,4.40
2023-03-18T08:55:09.720Z,4.50
2023-03-18T08:57:38.964Z,4.25
2023-03-18T09:00:08.957Z,4.30
2023-03-18T09:02:38.544Z,4.53
2023-03-18T09:05:08.148Z,3.35
2023-03-18T09:07:36.304Z,3.50
2023-03-18T09:10:04.999Z,3.55
2023-03-18T09:12:33.589Z,3.67
2023-03-18T09:15:02.137Z,3.78
2023-03-18T09:17:46.888Z,3.60
2023-03-18T09:20:20.746Z,3.20
2023-03-18T09:22:51.445Z,3.25
2023-03-18T09:25:19.876Z,3.60
2023-03-18T09:27:48.619Z,2.97
2023-03-18T09:30:17.435Z,2.72
2023-03-18T09:32:45.714Z,2.67
2023-03-18T09:35:14.260Z,2.80
2023-03-18T09:37:43.968Z,2.85
2023-03-18T09:40:20.155Z,3.13
2023-03-18T09:42:59.263Z,2.50
2023-03-18T09:45:32.146Z,2.50
2023-03-18T09:48:15.031Z,2.85
2023-03-18T09:50:48.997Z,3.10
2023-03-18T09:53:24.975Z,2.80
2023-03-18T09:55:56.961Z,3.00
2023-03-18T09:58:28.767Z,3.10
2023-03-18T10:01:02.262Z,2.58
2023-03-18T10:03:37.527Z,3.30
2023-03-18T10:06:09.694Z,2.90
2023-03-18T10:08:49.440Z,2.97
2023-03-18T10:11:32.189Z,2.78
2023-03-18T10:14:22.469Z,2.95
2023-03-18T10:16:59.486Z,2.80
2023-03-18T10:19:28.712Z,2.58
2023-03-18T10:22:12.485Z,2.75
2023-03-18T10:24:49.131Z,2.75
2023-03-18T10:27:23.044Z,2.88
2023-03-18T10:29:59.852Z,3.15
2023-03-18T10:32:49.194Z,2.83
2023-03-18T10:35:27.959Z,2.30
2023-03-18T10:38:02.300Z,2.90
2023-03-18T10:40:37.175Z,2.70
2023-03-18T10:43:05.718Z,2.72
2023-03-18T10:45:36.020Z,2.97
2023-03-18T10:48:11.333Z,2.65
2023-03-18T10:50:44.127Z,2.60
2023-03-18T10:53:18.936Z,2.47
2023-03-18T10:56:00.562Z,2.28
2023-03-18T10:58:30.591Z,2.40
2023-03-18T11:00:59.822Z,2.55
2023-03-18T11:03:30.800Z,2.22
2023-03-18T11:06:04.321Z,2.38
2023-03-18T11:08:35.880Z,2.25
2023-03-18T11:11:17.593Z,2.13
2023-03-18T11:13:53.316Z,1.80
2023-03-18T11:16:30.611Z,1.95
2023-03-18T11:19:00.145Z,2.13
2023-03-18T11:21:29.874Z,1.90
2023-03-18T11:24:21.491Z,2.20
2023-03-18T11:26:56.064Z,1.90
2023-03-18T11:29:33.131Z,1.75
2023-03-18T11:32:03.132Z,1.98
2023-03-18T11:34:36.989Z,1.80
2023-03-18T11:37:08.856Z,1.98
2023-03-18T11:39:41.129Z,2.00
2023-03-18T11:42:33.143Z,1.90
2023-03-18T11:45:22.563Z,1.90
2023-03-18T11:47:50.907Z,1.70
2023-03-18T11:50:21.773Z,1.60
2023-03-18T11:52:59.127Z,1.88
2023-03-18T11:55:39.880Z,2.03
2023-03-18T11:58:51.904Z,1.67
2023-03-18T12:01:27.728Z,2.00
2023-03-18T12:04:22.443Z,2.13
2023-03-18T12:07:01.461Z,2.03
2023-03-18T12:09:35.494Z,1.95
2023-03-18T12:12:21.102Z,1.80
2023-03-18T12:14:59.376Z,1.85
2023-03-18T12:17:38.190Z,1.92
2023-03-18T12:20:32.614Z,1.70
2023-03-18T12:23:06.899Z,1.80
2023-03-18T12:25:55.937Z,1.95
2023-03-18T12:28:36.749Z,1.58
2023-03-18T12:31:41.544Z,1.60
2023-03-18T12:34:23.599Z,1.95
2023-03-18T12:37:05.830Z,2.17
2023-03-18T12:40:13.259Z,2.20
2023-03-18T12:42:55.670Z,1.85
2023-03-18T12:45:28.581Z,1.88
2023-03-18T12:48:03.440Z,1.80
2023-03-18T12:50:39.754Z,1.67
2023-03-18T12:53:16.618Z,1.77
2023-03-18T12:55:48.818Z,1.50
2023-03-18T12:58:19.956Z,1.90
2023-03-18T13:00:52.898Z,1.80
2023-03-18T13:03:34.055Z,7.18
2023-03-18T13:06:05.362Z,3.88
2023-03-18T13:09:01.061Z,5.13
2023-03-18T13:11:50.488Z,4.25
2023-03-18T13:14:25.883Z,4.28
2023-03-18T13:16:56.518Z,3.10
2023-03-18T13:19:26.588Z,2.83
2023-03-18T13:22:04.250Z,2.83
2023-03-18T13:24:54.558Z,2.30
2023-03-18T13:27:41.839Z,2.17
2023-03-18T13:30:19.940Z,2.20
2023-03-18T13:33:07.891Z,2.00
2023-03-18T13:36:18.988Z,1.58
2023-03-18T13:39:18.265Z,1.73
2023-03-18T13:42:11.900Z,2.00
2023-03-18T13:44:45.704Z,1.90
2023-03-18T13:47:19.197Z,1.77
2023-03-18T13:49:48.569Z,1.85
2023-03-18T13:52:35.956Z,1.63
2023-03-18T13:55:09.352Z,1.40
2023-03-18T13:57:48.923Z,1.65
2023-03-18T14:00:32.129Z,1.73
2023-03-18T14:03:16.537Z,1.70
2023-03-18T14:05:47.327Z,1.60
2023-03-18T14:08:37.612Z,1.92
2023-03-18T14:11:44.779Z,1.60
2023-03-18T14:15:08.516Z,1.42
2023-03-18T14:17:48.630Z,1.50
2023-03-18T14:20:39.936Z,1.63
2023-03-18T14:23:35.071Z,2.25
2023-03-18T14:26:08.152Z,1.45
2023-03-18T14:28:47.737Z,1.50
2023-03-18T14:31:31.735Z,1.70
2023-03-18T14:34:25.522Z,1.20
2023-03-18T14:37:27.187Z,1.25
2023-03-18T14:40:00.062Z,1.80
2023-03-18T14:42:38.598Z,1.45
2023-03-18T14:45:14.094Z,1.80
2023-03-18T14:47:47.262Z,1.52
2023-03-18T14:50:20.340Z,1.10
2023-03-18T14:52:54.756Z,1.20
2023-03-18T14:55:27.092Z,1.60
2023-03-18T14:57:57.168Z,1.52
2023-03-18T15:00:26.169Z,1.60
2023-03-18T15:03:01.911Z,1.48
2023-03-18T15:05:35.697Z,1.40
2023-03-18T15:08:09.478Z,1.55
2023-03-18T15:10:39.208Z,1.42
2023-03-18T15:13:13.070Z,1.30
2023-03-18T15:15:42.674Z,1.40
2023-03-18T15:18:21.820Z,1.33
2023-03-18T15:20:54.611Z,1.05
2023-03-18T15:23:29.221Z,1.67
2023-03-18T15:25:57.732Z,1.50
2023-03-18T15:28:30.500Z,1.50
2023-03-18T15:31:01.066Z,1.48
2023-03-18T15:33:35.793Z,1.38
2023-03-18T15:36:07.144Z,1.38
2023-03-18T15:38:36.200Z,1.85
2023-03-18T15:41:07.414Z,1.60
2023-03-18T15:43:42.724Z,1.65
2023-03-18T15:46:19.280Z,1.40
2023-03-18T15:48:54.660Z,1.40
2023-03-18T15:51:31.575Z,1.33
2023-03-18T15:54:05.828Z,1.77
2023-03-18T15:56:36.614Z,2.40
2023-03-18T15:59:09.168Z,2.60
2023-03-18T16:01:37.886Z,2.13
2023-03-18T16:04:10.725Z,2.28
2023-03-18T16:06:40.394Z,2.60
2023-03-18T16:09:20.112Z,2.38
2023-03-18T16:11:51.750Z,2.22
2023-03-18T16:14:22.767Z,2.33
2023-03-18T16:16:51.646Z,2.25
2023-03-18T16:19:25.162Z,2.28
2023-03-18T16:21:53.563Z,1.65
2023-03-18T16:24:22.378Z,2.17
2023-03-18T16:26:51.081Z,2.08
2023-03-18T16:29:28.640Z,1.98
2023-03-18T16:31:57.125Z,1.65
2023-03-18T16:34:26.100Z,1.98
2023-03-18T16:36:54.497Z,2.00
2023-03-18T16:39:25.541Z,1.83
2023-03-18T16:41:53.745Z,1.88
2023-03-18T16:44:24.982Z,1.55
2023-03-18T16:46:55.406Z,1.58
2023-03-18T16:49:28.024Z,1.63
2023-03-18T16:51:57.024Z,1.40
2023-03-18T16:54:26.477Z,1.65
2023-03-18T16:56:57.516Z,1.83
2023-03-18T16:59:30.485Z,1.77
2023-03-18T17:01:58.671Z,1.63
2023-03-18T17:04:29.798Z,1.70
2023-03-18T17:06:59.141Z,1.90
2023-03-18T17:09:28.164Z,1.85
2023-03-18T17:11:59.210Z,1.98
2023-03-18T17:14:35.179Z,1.92
2023-03-18T17:17:07.052Z,2.28
2023-03-18T17:19:35.982Z,2.03
2023-03-18T17:22:08.032Z,2.13
2023-03-18T17:24:36.090Z,2.17
2023-03-18T17:27:06.461Z,2.60
2023-03-18T17:29:36.033Z,3.53
2023-03-18T17:32:04.601Z,3.80
2023-03-18T17:34:33.299Z,4.68
2023-03-18T17:37:01.398Z,5.55
2023-03-18T17:39:29.955Z,6.30
2023-03-18T17:41:58.210Z,6.63
2023-03-18T17:44:30.060Z,5.95
2023-03-18T17:46:59.993Z,6.60
2023-03-18T17:49:28.833Z,5.55
2023-03-18T17:51:57.808Z,6.35
2023-03-18T17:54:27.646Z,5.88
2023-03-18T17:56:56.195Z,5.90
2023-03-18T17:59:24.830Z,5.63
2023-03-18T18:01:53.496Z,5.53
2023-03-18T18:04:24.830Z,4.88
2023-03-18T18:06:53.529Z,4.70
2023-03-18T18:09:22.606Z,4.30
2023-03-18T18:11:51.026Z,4.15
2023-03-18T18:14:22.872Z,3.92
2023-03-18T18:16:51.609Z,4.30
2023-03-18T18:19:19.733Z,3.97
2023-03-18T18:21:50.816Z,3.67
2023-03-18T18:24:23.095Z,3.50
2023-03-18T18:26:51.737Z,3.28
2023-03-18T18:29:22.307Z,4.18
2023-03-18T18:31:50.966Z,3.67
2023-03-18T18:34:20.182Z,3.55
2023-03-18T18:36:50.810Z,3.42
2023-03-18T18:39:19.628Z,3.47
2023-03-18T18:41:47.757Z,2.95
2023-03-18T18:44:15.923Z,3.55
2023-03-18T18:46:44.133Z,3.55
2023-03-18T18:49:22.753Z,3.15
2023-03-18T18:51:55.230Z,3.85
2023-03-18T18:54:23.327Z,3.92
2023-03-18T18:56:52.240Z,3.70
2023-03-18T18:59:24.861Z,4.03
2023-03-18T19:01:53.745Z,4.10
2023-03-18T19:04:22.912Z,4.05
2023-03-18T19:06:53.804Z,3.65
2023-03-18T19:09:24.432Z,3.80
2023-03-18T19:11:54.081Z,3.55
2023-03-18T19:14:24.659Z,3.97
2023-03-18T19:16:53.766Z,3.63
2023-03-18T19:19:28.220Z,3.70
2023-03-18T19:21:59.324Z,3.65
2023-03-18T19:27:16.839Z,5.53
2023-03-18T19:29:47.343Z,4.63
2023-03-18T19:32:18.838Z,4.40
2023-03-18T19:34:47.669Z,4.88
2023-03-18T19:37:18.745Z,4.47
2023-03-18T19:39:47.123Z,4.03
2023-03-18T19:42:19.182Z,4.30
2023-03-18T19:44:47.838Z,4.38
2023-03-18T19:47:23.837Z,3.88
2023-03-18T19:49:52.559Z,4.82
2023-03-18T19:52:23.297Z,4.47
2023-03-18T19:54:52.547Z,3.90
2023-03-18T19:57:26.143Z,4.28
2023-03-18T19:59:56.426Z,5.10
2023-03-18T20:02:27.144Z,5.32
2023-03-18T20:04:58.057Z,5.55
2023-03-18T20:07:27.550Z,5.10
2023-03-18T20:09:56.758Z,4.90
2023-03-18T20:12:37.302Z,5.55
2023-03-18T20:15:06.363Z,5.05
2023-03-18T20:17:40.382Z,5.35
2023-03-18T20:20:13.678Z,5.40
2023-03-18T20:22:46.831Z,4.95
2023-03-18T20:25:21.720Z,4.80
2023-03-18T20:27:53.620Z,4.47
2023-03-18T20:30:28.815Z,5.13
2023-03-18T20:32:57.568Z,5.15
2023-03-18T20:35:29.376Z,5.20
2023-03-18T20:37:59.367Z,4.63
2023-03-18T20:40:29.669Z,4.80
2023-03-18T20:42:59.297Z,4.93
2023-03-18T20:45:27.441Z,5.18
2023-03-18T20:47:56.676Z,6.63
2023-03-18T20:50:30.298Z,5.82
2023-03-18T20:52:59.151Z,6.40
2023-03-18T20:55:31.449Z,5.65
2023-03-18T20:58:01.821Z,5.63
2023-03-18T21:00:33.312Z,4.70
2023-03-18T21:03:03.457Z,5.60
2023-03-18T21:05:32.245Z,5.20
2023-03-18T21:08:00.526Z,5.35
2023-03-18T21:10:29.339Z,5.20
2023-03-18T21:12:57.424Z,4.93
2023-03-18T21:15:29.362Z,4.63
2023-03-18T21:17:57.455Z,5.13
2023-03-18T21:20:30.096Z,4.57
2023-03-18T21:22:58.681Z,4.88
2023-03-18T21:25:28.209Z,5.25
2023-03-18T21:27:56.746Z,4.65
2023-03-18T21:30:26.211Z,4.53
2023-03-18T21:32:54.520Z,4.57
2023-03-18T21:35:25.073Z,4.40
2023-03-18T21:37:54.250Z,4.70
2023-03-18T21:40:24.001Z,4.60
2023-03-18T21:42:54.034Z,4.45
2023-03-18T21:45:24.267Z,4.85
2023-03-18T21:47:53.829Z,4.85
2023-03-18T21:50:25.256Z,4.82
2023-03-18T21:52:53.862Z,4.65
2023-03-18T21:55:23.039Z,4.90
2023-03-18T21:57:51.212Z,4.32
2023-03-18T22:00:21.825Z,5.22
2023-03-18T22:02:50.556Z,4.60
2023-03-18T22:05:22.451Z,4.85
2023-03-18T22:07:51.376Z,5.05
2023-03-18T22:10:21.412Z,4.82
2023-03-18T22:12:49.582Z,4.38
2023-03-18T22:15:40.337Z,5.25
2023-03-18T22:18:09.171Z,4.47
2023-03-18T22:20:39.755Z,4.60
2023-03-18T22:23:18.425Z,5.30
2023-03-18T22:25:47.737Z,4.97
2023-03-18T22:28:15.952Z,4.80
2023-03-18T22:30:46.109Z,4.75
2023-03-18T22:33:20.853Z,5.15
2023-03-18T22:35:50.855Z,5.70
2023-03-18T22:38:21.090Z,6.43
2023-03-18T22:40:52.157Z,5.30
2023-03-18T22:43:32.255Z,5.70
2023-03-18T22:46:01.541Z,5.43
2023-03-18T22:48:30.943Z,5.47
2023-03-18T22:51:01.356Z,5.90
2023-03-18T22:53:32.474Z,5.68
2023-03-18T22:56:06.331Z,5.75
2023-03-18T22:58:34.969Z,7.97
2023-03-18T23:01:03.661Z,6.20
2023-03-18T23:03:34.862Z,5.57
2023-03-18T23:06:05.856Z,5.30
2023-03-18T23:08:34.805Z,5.20
2023-03-18T23:11:03.453Z,5.05
2023-03-18T23:13:39.959Z,6.10
2023-03-18T23:16:10.681Z,5.25
2023-03-18T23:18:39.613Z,5.13
2023-03-18T23:21:12.131Z,4.88
2023-03-18T23:23:40.745Z,5.32
2023-03-18T23:26:08.834Z,5.10
2023-03-18T23:28:44.424Z,5.43
2023-03-18T23:31:13.580Z,5.13
2023-03-18T23:33:42.518Z,5.05
2023-03-18T23:36:12.570Z,5.22
2023-03-18T23:38:40.730Z,5.05
2023-03-18T23:41:09.702Z,4.93
2023-03-18T23:43:38.236Z,4.95
2023-03-18T23:46:07.476Z,4.43
2023-03-18T23:48:36.350Z,4.85
2023-03-18T23:51:04.490Z,5.55
2023-03-18T23:53:34.370Z,5.22
2023-03-18T23:56:02.416Z,5.88
2023-03-18T23:58:30.947Z,6.15
